PUA1930 SUMU-SBFL
Flight info
| Callsign | PUA1930 |
|---|---|
| Flight time | 1h 26m |
| Altitude | 35000 |
| Route | MOLBI UM540 DADMO |
| Aircraft | B738/M-SDE2E3FGHIRWXY/LB1 |
Departure
| Time | 2026-05-07 12:37 |
|---|---|
| Airport | Carrasco General Cesáreo L. Berisso International Airport (SUMU) |
Arrival
| Time | 2026-05-07 14:03 |
|---|---|
| Airport | Hercílio Luz International Airport (SBFL) |
| Time | Latitude | Longitude | Altitude | Speed | Heading |
|---|---|---|---|---|---|
| 2026-05-07 12:21 | -34.83680 | -56.01860 | 73 ft | 0 kts | 143° |
| 2026-05-07 12:28 | -34.83661 | -56.01877 | 73 ft | 4 kts | 144° |
| 2026-05-07 12:28 | -34.83639 | -56.01896 | 65 ft | 4 kts | 147° |
| 2026-05-07 12:29 | -34.83616 | -56.01912 | 64 ft | 4 kts | 156° |
| 2026-05-07 12:29 | -34.83592 | -56.01920 | 66 ft | 4 kts | 198° |
| 2026-05-07 12:29 | -34.83583 | -56.01915 | 67 ft | 0 kts | 233° |
| 2026-05-07 12:31 | -34.83583 | -56.01916 | 67 ft | 1 kts | 233° |
| 2026-05-07 12:31 | -34.83609 | -56.01958 | 68 ft | 10 kts | 233° |
| 2026-05-07 12:31 | -34.83656 | -56.02036 | 73 ft | 12 kts | 234° |
| 2026-05-07 12:32 | -34.83703 | -56.02115 | 69 ft | 11 kts | 234° |
| 2026-05-07 12:32 | -34.83750 | -56.02191 | 73 ft | 11 kts | 233° |
| 2026-05-07 12:32 | -34.83814 | -56.02238 | 62 ft | 13 kts | 189° |
| 2026-05-07 12:32 | -34.83918 | -56.02254 | 54 ft | 17 kts | 208° |
| 2026-05-07 12:33 | -34.83948 | -56.02532 | 60 ft | 17 kts | 271° |
| 2026-05-07 12:33 | -34.83964 | -56.02666 | 59 ft | 16 kts | 259° |
| 2026-05-07 12:33 | -34.83999 | -56.02789 | 59 ft | 15 kts | 248° |
| 2026-05-07 12:34 | -34.84012 | -56.02912 | 66 ft | 11 kts | 273° |
| 2026-05-07 12:34 | -34.84010 | -56.02963 | 62 ft | 6 kts | 273° |
| 2026-05-07 12:34 | -34.84013 | -56.03015 | 66 ft | 7 kts | 258° |
| 2026-05-07 12:34 | -34.84046 | -56.03067 | 69 ft | 9 kts | 209° |
| 2026-05-07 12:35 | -34.84115 | -56.03051 | 65 ft | 12 kts | 151° |
| 2026-05-07 12:35 | -34.84179 | -56.03044 | 68 ft | 10 kts | 240° |
| 2026-05-07 12:35 | -34.84158 | -56.03077 | 64 ft | 0 kts | 356° |
| 2026-05-07 12:36 | -34.83942 | -56.03084 | 70 ft | 66 kts | 360° |
| 2026-05-07 12:36 | -34.83252 | -56.03086 | 68 ft | 131 kts | 1° |
| 2026-05-07 12:37 | -34.82173 | -56.03090 | 255 ft | 168 kts | 1° |
| 2026-05-07 12:37 | -34.80995 | -56.03035 | 895 ft | 177 kts | 2° |
| 2026-05-07 12:37 | -34.79692 | -56.02819 | 1368 ft | 202 kts | 18° |
| 2026-05-07 12:37 | -34.78535 | -56.01784 | 1985 ft | 218 kts | 42° |
| 2026-05-07 12:38 | -34.77396 | -56.00422 | 2257 ft | 239 kts | 43° |
| 2026-05-07 12:38 | -34.76197 | -55.98965 | 2781 ft | 246 kts | 43° |
| 2026-05-07 12:38 | -34.74961 | -55.97469 | 3257 ft | 259 kts | 43° |
| 2026-05-07 12:38 | -34.73653 | -55.95901 | 3803 ft | 268 kts | 43° |
| 2026-05-07 12:39 | -34.72329 | -55.94321 | 4727 ft | 267 kts | 43° |
| 2026-05-07 12:39 | -34.70986 | -55.92728 | 5428 ft | 274 kts | 43° |
| 2026-05-07 12:39 | -34.69595 | -55.91086 | 6107 ft | 282 kts | 42° |
| 2026-05-07 12:39 | -34.68180 | -55.89422 | 6845 ft | 285 kts | 42° |
| 2026-05-07 12:40 | -34.66746 | -55.87740 | 7576 ft | 289 kts | 41° |
| 2026-05-07 12:40 | -34.65782 | -55.86612 | 8045 ft | 292 kts | 41° |
| 2026-05-07 12:40 | -34.64305 | -55.84884 | 8791 ft | 296 kts | 40° |
| 2026-05-07 12:40 | -34.62315 | -55.82561 | 9721 ft | 303 kts | 39° |
| 2026-05-07 12:41 | -34.60744 | -55.80733 | 9995 ft | 324 kts | 39° |
| 2026-05-07 12:41 | -34.59619 | -55.79428 | 10117 ft | 339 kts | 39° |
| 2026-05-07 12:41 | -34.57888 | -55.77418 | 10333 ft | 357 kts | 40° |
| 2026-05-07 12:41 | -34.56075 | -55.75308 | 10892 ft | 363 kts | 39° |
| 2026-05-07 12:42 | -34.54244 | -55.73170 | 11563 ft | 367 kts | 39° |
| 2026-05-07 12:42 | -34.52391 | -55.71011 | 12220 ft | 371 kts | 39° |
| 2026-05-07 12:42 | -34.50519 | -55.68835 | 12857 ft | 375 kts | 38° |
| 2026-05-07 12:42 | -34.48630 | -55.66640 | 13484 ft | 378 kts | 38° |
| 2026-05-07 12:43 | -34.46720 | -55.64423 | 14046 ft | 382 kts | 38° |
| 2026-05-07 12:43 | -34.44786 | -55.62181 | 14599 ft | 387 kts | 37° |
| 2026-05-07 12:43 | -34.42833 | -55.59918 | 15172 ft | 390 kts | 37° |
| 2026-05-07 12:43 | -34.40863 | -55.57636 | 15736 ft | 394 kts | 37° |
| 2026-05-07 12:44 | -34.38867 | -55.55324 | 16304 ft | 398 kts | 36° |
| 2026-05-07 12:44 | -34.36858 | -55.53001 | 16855 ft | 402 kts | 36° |
| 2026-05-07 12:44 | -34.34817 | -55.50646 | 17400 ft | 406 kts | 36° |
| 2026-05-07 12:44 | -34.32746 | -55.48313 | 17938 ft | 407 kts | 34° |
| 2026-05-07 12:45 | -34.30652 | -55.46069 | 18471 ft | 407 kts | 33° |
| 2026-05-07 12:45 | -34.28519 | -55.43827 | 19101 ft | 405 kts | 33° |
| 2026-05-07 12:45 | -34.26392 | -55.41600 | 19713 ft | 404 kts | 33° |
| 2026-05-07 12:45 | -34.24269 | -55.39376 | 20278 ft | 405 kts | 33° |
| 2026-05-07 12:46 | -34.22141 | -55.37140 | 20800 ft | 405 kts | 33° |
| 2026-05-07 12:46 | -34.20022 | -55.34905 | 21434 ft | 403 kts | 33° |
| 2026-05-07 12:46 | -34.17902 | -55.32666 | 21922 ft | 405 kts | 33° |
| 2026-05-07 12:46 | -34.15777 | -55.30422 | 22360 ft | 408 kts | 33° |
| 2026-05-07 12:47 | -34.13637 | -55.28162 | 22809 ft | 410 kts | 33° |
| 2026-05-07 12:47 | -34.11488 | -55.25892 | 23210 ft | 411 kts | 34° |
| 2026-05-07 12:47 | -34.09322 | -55.23607 | 23464 ft | 416 kts | 34° |
| 2026-05-07 12:47 | -34.07138 | -55.21301 | 23827 ft | 417 kts | 34° |
| 2026-05-07 12:48 | -34.04952 | -55.18992 | 24240 ft | 417 kts | 34° |
| 2026-05-07 12:48 | -34.02772 | -55.16691 | 24614 ft | 418 kts | 34° |
| 2026-05-07 12:48 | -34.00575 | -55.14376 | 24998 ft | 419 kts | 33° |
| 2026-05-07 12:48 | -33.98379 | -55.12062 | 25359 ft | 420 kts | 33° |
| 2026-05-07 12:49 | -33.96198 | -55.09768 | 25683 ft | 422 kts | 33° |
| 2026-05-07 12:49 | -33.93982 | -55.07440 | 26026 ft | 423 kts | 33° |
| 2026-05-07 12:49 | -33.91767 | -55.05113 | 26386 ft | 423 kts | 33° |
| 2026-05-07 12:49 | -33.89780 | -55.03026 | 26626 ft | 424 kts | 34° |
| 2026-05-07 12:50 | -33.87532 | -55.00671 | 26680 ft | 432 kts | 34° |
| 2026-05-07 12:50 | -33.85245 | -54.98279 | 26734 ft | 440 kts | 34° |
| 2026-05-07 12:50 | -33.82923 | -54.95850 | 26961 ft | 443 kts | 34° |
| 2026-05-07 12:50 | -33.80596 | -54.93413 | 27315 ft | 443 kts | 34° |
| 2026-05-07 12:51 | -33.78270 | -54.90975 | 27614 ft | 444 kts | 34° |
| 2026-05-07 12:51 | -33.75931 | -54.88529 | 27888 ft | 446 kts | 34° |
| 2026-05-07 12:51 | -33.73589 | -54.86081 | 28129 ft | 448 kts | 34° |
| 2026-05-07 12:51 | -33.71229 | -54.83618 | 28396 ft | 450 kts | 34° |
| 2026-05-07 12:52 | -33.68862 | -54.81150 | 28666 ft | 452 kts | 34° |
| 2026-05-07 12:52 | -33.66477 | -54.78665 | 28936 ft | 454 kts | 34° |
| 2026-05-07 12:52 | -33.64091 | -54.76180 | 29234 ft | 455 kts | 34° |
| 2026-05-07 12:52 | -33.61690 | -54.73683 | 29369 ft | 460 kts | 33° |
| 2026-05-07 12:53 | -33.56813 | -54.68621 | 29520 ft | 470 kts | 33° |
| 2026-05-07 12:53 | -33.51805 | -54.63427 | 29756 ft | 478 kts | 33° |
| 2026-05-07 12:54 | -33.49292 | -54.60817 | 30093 ft | 476 kts | 33° |
| 2026-05-07 12:54 | -33.46801 | -54.58230 | 30489 ft | 472 kts | 33° |
| 2026-05-07 12:54 | -33.44321 | -54.55658 | 30828 ft | 470 kts | 33° |
| 2026-05-07 12:54 | -33.41849 | -54.53100 | 31121 ft | 470 kts | 33° |
| 2026-05-07 12:55 | -33.39373 | -54.50543 | 31361 ft | 471 kts | 33° |
| 2026-05-07 12:55 | -33.36894 | -54.47985 | 31588 ft | 472 kts | 34° |
| 2026-05-07 12:55 | -33.34400 | -54.45416 | 31797 ft | 473 kts | 34° |
| 2026-05-07 12:55 | -33.31911 | -54.42851 | 32114 ft | 472 kts | 34° |
| 2026-05-07 12:56 | -33.29432 | -54.40296 | 32486 ft | 469 kts | 34° |
| 2026-05-07 12:56 | -33.26967 | -54.37758 | 32817 ft | 468 kts | 34° |
| 2026-05-07 12:56 | -33.24498 | -54.35218 | 33070 ft | 468 kts | 34° |
| 2026-05-07 12:56 | -33.22027 | -54.32680 | 33320 ft | 468 kts | 34° |
| 2026-05-07 12:57 | -33.19590 | -54.30179 | 33580 ft | 467 kts | 33° |
| 2026-05-07 12:57 | -33.17127 | -54.27652 | 33832 ft | 467 kts | 33° |
| 2026-05-07 12:57 | -33.14665 | -54.25128 | 34050 ft | 466 kts | 33° |
| 2026-05-07 12:57 | -33.12205 | -54.22609 | 34212 ft | 467 kts | 34° |
| 2026-05-07 12:58 | -33.07239 | -54.17532 | 34521 ft | 469 kts | 34° |
| 2026-05-07 12:58 | -33.04771 | -54.15008 | 34714 ft | 469 kts | 34° |
| 2026-05-07 12:58 | -33.02277 | -54.12462 | 34698 ft | 472 kts | 34° |
| 2026-05-07 12:59 | -32.97287 | -54.07372 | 34701 ft | 470 kts | 33° |
| 2026-05-07 12:59 | -32.92350 | -54.02338 | 34711 ft | 465 kts | 33° |
| 2026-05-07 13:00 | -32.87468 | -53.97374 | 34707 ft | 464 kts | 34° |
| 2026-05-07 13:00 | -32.82545 | -53.92378 | 34727 ft | 465 kts | 34° |
| 2026-05-07 13:01 | -32.77605 | -53.87372 | 34733 ft | 467 kts | 34° |
| 2026-05-07 13:01 | -32.72641 | -53.82347 | 34733 ft | 470 kts | 34° |
| 2026-05-07 13:02 | -32.67650 | -53.77303 | 34739 ft | 473 kts | 34° |
| 2026-05-07 13:02 | -32.62623 | -53.72228 | 34714 ft | 475 kts | 34° |
| 2026-05-07 13:03 | -32.57616 | -53.67181 | 34712 ft | 476 kts | 35° |
| 2026-05-07 13:03 | -32.52566 | -53.62097 | 34727 ft | 477 kts | 35° |
| 2026-05-07 13:04 | -32.47498 | -53.57004 | 34735 ft | 477 kts | 35° |
| 2026-05-07 13:04 | -32.42501 | -53.51803 | 34728 ft | 479 kts | 37° |
| 2026-05-07 13:05 | -32.37609 | -53.46444 | 34728 ft | 479 kts | 38° |
| 2026-05-07 13:05 | -32.32721 | -53.41094 | 34724 ft | 478 kts | 37° |
| 2026-05-07 13:06 | -32.27827 | -53.35788 | 34726 ft | 477 kts | 37° |
| 2026-05-07 13:06 | -32.22933 | -53.30511 | 34720 ft | 475 kts | 37° |
| 2026-05-07 13:07 | -32.18049 | -53.25255 | 34727 ft | 474 kts | 37° |
| 2026-05-07 13:07 | -32.13197 | -53.20041 | 34730 ft | 474 kts | 38° |
| 2026-05-07 13:08 | -32.08321 | -53.14808 | 34741 ft | 474 kts | 38° |
| 2026-05-07 13:08 | -32.03426 | -53.09561 | 34737 ft | 476 kts | 38° |
| 2026-05-07 13:09 | -31.98517 | -53.04309 | 34739 ft | 477 kts | 38° |
| 2026-05-07 13:09 | -31.93596 | -52.99050 | 34741 ft | 478 kts | 39° |
| 2026-05-07 13:10 | -31.88662 | -52.93785 | 34728 ft | 479 kts | 39° |
| 2026-05-07 13:10 | -31.83749 | -52.88551 | 34748 ft | 480 kts | 39° |
| 2026-05-07 13:11 | -31.78791 | -52.83277 | 34760 ft | 481 kts | 39° |
| 2026-05-07 13:11 | -31.73814 | -52.77990 | 34757 ft | 483 kts | 39° |
| 2026-05-07 13:12 | -31.68825 | -52.72700 | 34764 ft | 484 kts | 39° |
| 2026-05-07 13:12 | -31.63825 | -52.67404 | 34770 ft | 484 kts | 39° |
| 2026-05-07 13:13 | -31.58815 | -52.62103 | 34776 ft | 485 kts | 39° |
| 2026-05-07 13:13 | -31.53795 | -52.56802 | 34775 ft | 486 kts | 39° |
| 2026-05-07 13:14 | -31.48769 | -52.51496 | 34778 ft | 486 kts | 38° |
| 2026-05-07 13:14 | -31.43741 | -52.46191 | 34792 ft | 487 kts | 38° |
| 2026-05-07 13:15 | -31.38705 | -52.40885 | 34803 ft | 487 kts | 38° |
| 2026-05-07 13:15 | -31.33655 | -52.35572 | 34803 ft | 488 kts | 38° |
| 2026-05-07 13:16 | -31.28605 | -52.30267 | 34810 ft | 489 kts | 38° |
| 2026-05-07 13:16 | -31.23577 | -52.24993 | 34795 ft | 488 kts | 38° |
| 2026-05-07 13:17 | -31.18512 | -52.19692 | 34792 ft | 488 kts | 37° |
| 2026-05-07 13:17 | -31.13452 | -52.14399 | 34812 ft | 488 kts | 37° |
| 2026-05-07 13:18 | -31.08394 | -52.09116 | 34808 ft | 488 kts | 37° |
| 2026-05-07 13:18 | -31.03328 | -52.03834 | 34806 ft | 488 kts | 37° |
| 2026-05-07 13:19 | -30.98300 | -51.98600 | 34815 ft | 488 kts | 37° |
| 2026-05-07 13:19 | -30.93232 | -51.93331 | 34814 ft | 488 kts | 37° |
| 2026-05-07 13:20 | -30.88162 | -51.88068 | 34820 ft | 488 kts | 37° |
| 2026-05-07 13:20 | -30.83089 | -51.82809 | 34820 ft | 488 kts | 36° |
| 2026-05-07 13:21 | -30.78020 | -51.77563 | 34823 ft | 488 kts | 35° |
| 2026-05-07 13:21 | -30.72946 | -51.72320 | 34836 ft | 488 kts | 35° |
| 2026-05-07 13:22 | -30.67894 | -51.67107 | 34837 ft | 488 kts | 35° |
| 2026-05-07 13:22 | -30.62820 | -51.61878 | 34839 ft | 488 kts | 35° |
| 2026-05-07 13:23 | -30.57748 | -51.56657 | 34837 ft | 487 kts | 34° |
| 2026-05-07 13:23 | -30.52838 | -51.51197 | 34842 ft | 491 kts | 39° |
| 2026-05-07 13:24 | -30.48134 | -51.45453 | 34839 ft | 491 kts | 40° |
| 2026-05-07 13:24 | -30.43440 | -51.39718 | 34845 ft | 490 kts | 39° |
| 2026-05-07 13:25 | -30.38713 | -51.34037 | 34848 ft | 490 kts | 39° |
| 2026-05-07 13:25 | -30.33994 | -51.28418 | 34845 ft | 490 kts | 39° |
| 2026-05-07 13:26 | -30.29221 | -51.22755 | 34860 ft | 492 kts | 39° |
| 2026-05-07 13:26 | -30.24423 | -51.17068 | 34859 ft | 494 kts | 39° |
| 2026-05-07 13:27 | -30.20426 | -51.12332 | 34845 ft | 495 kts | 39° |
| 2026-05-07 13:27 | -30.15607 | -51.06628 | 34839 ft | 496 kts | 39° |
| 2026-05-07 13:28 | -30.10774 | -51.00916 | 34832 ft | 496 kts | 39° |
| 2026-05-07 13:28 | -30.05942 | -50.95214 | 34846 ft | 497 kts | 39° |
| 2026-05-07 13:29 | -30.01095 | -50.89505 | 34852 ft | 498 kts | 39° |
| 2026-05-07 13:29 | -29.96242 | -50.83796 | 34860 ft | 499 kts | 39° |
| 2026-05-07 13:30 | -29.91381 | -50.78086 | 34874 ft | 499 kts | 39° |
| 2026-05-07 13:30 | -29.86499 | -50.72361 | 34881 ft | 500 kts | 39° |
| 2026-05-07 13:31 | -29.81653 | -50.66684 | 34895 ft | 500 kts | 39° |
| 2026-05-07 13:31 | -29.76775 | -50.60980 | 34890 ft | 500 kts | 39° |
| 2026-05-07 13:32 | -29.71887 | -50.55273 | 34894 ft | 500 kts | 39° |
| 2026-05-07 13:32 | -29.67001 | -50.49575 | 34921 ft | 499 kts | 39° |
| 2026-05-07 13:33 | -29.62126 | -50.43899 | 34925 ft | 499 kts | 39° |
| 2026-05-07 13:33 | -29.57242 | -50.38223 | 34916 ft | 499 kts | 39° |
| 2026-05-07 13:34 | -29.49921 | -50.29702 | 34920 ft | 501 kts | 39° |
| 2026-05-07 13:35 | -29.45016 | -50.24029 | 34936 ft | 500 kts | 39° |
| 2026-05-07 13:35 | -29.40141 | -50.18404 | 34891 ft | 501 kts | 39° |
| 2026-05-07 13:35 | -29.37680 | -50.15566 | 34525 ft | 502 kts | 39° |
| 2026-05-07 13:36 | -29.35233 | -50.12739 | 34173 ft | 496 kts | 39° |
| 2026-05-07 13:36 | -29.32808 | -50.09937 | 33737 ft | 493 kts | 39° |
| 2026-05-07 13:36 | -29.30403 | -50.07157 | 33270 ft | 489 kts | 39° |
| 2026-05-07 13:36 | -29.28019 | -50.04406 | 32806 ft | 484 kts | 39° |
| 2026-05-07 13:37 | -29.25653 | -50.01690 | 32458 ft | 478 kts | 39° |
| 2026-05-07 13:37 | -29.23317 | -49.99000 | 32004 ft | 474 kts | 39° |
| 2026-05-07 13:37 | -29.20993 | -49.96340 | 31610 ft | 469 kts | 39° |
| 2026-05-07 13:37 | -29.18701 | -49.93706 | 31210 ft | 465 kts | 40° |
| 2026-05-07 13:38 | -29.16429 | -49.91094 | 30805 ft | 461 kts | 40° |
| 2026-05-07 13:38 | -29.14171 | -49.88500 | 30397 ft | 458 kts | 40° |
| 2026-05-07 13:38 | -29.11934 | -49.85933 | 29993 ft | 454 kts | 40° |
| 2026-05-07 13:38 | -29.09716 | -49.83391 | 29533 ft | 451 kts | 40° |
| 2026-05-07 13:39 | -29.07505 | -49.80858 | 29100 ft | 447 kts | 40° |
| 2026-05-07 13:39 | -29.05324 | -49.78362 | 28643 ft | 443 kts | 40° |
| 2026-05-07 13:39 | -29.03154 | -49.75879 | 28222 ft | 438 kts | 39° |
| 2026-05-07 13:39 | -29.01008 | -49.73427 | 27801 ft | 434 kts | 40° |
| 2026-05-07 13:40 | -28.98882 | -49.70999 | 27390 ft | 430 kts | 40° |
| 2026-05-07 13:40 | -28.96776 | -49.68595 | 26976 ft | 426 kts | 40° |
| 2026-05-07 13:40 | -28.94687 | -49.66212 | 26580 ft | 423 kts | 40° |
| 2026-05-07 13:40 | -28.92616 | -49.63851 | 26184 ft | 419 kts | 40° |
| 2026-05-07 13:41 | -28.90561 | -49.61510 | 25779 ft | 416 kts | 40° |
| 2026-05-07 13:41 | -28.88522 | -49.59188 | 25376 ft | 413 kts | 40° |
| 2026-05-07 13:41 | -28.86494 | -49.56880 | 24974 ft | 411 kts | 40° |
| 2026-05-07 13:41 | -28.84476 | -49.54586 | 24571 ft | 408 kts | 40° |
| 2026-05-07 13:42 | -28.82495 | -49.52334 | 24152 ft | 406 kts | 39° |
| 2026-05-07 13:42 | -28.80499 | -49.50067 | 23773 ft | 403 kts | 39° |
| 2026-05-07 13:42 | -28.78504 | -49.47800 | 23337 ft | 397 kts | 39° |
| 2026-05-07 13:42 | -28.76589 | -49.45624 | 22910 ft | 390 kts | 39° |
| 2026-05-07 13:43 | -28.74683 | -49.43460 | 22502 ft | 383 kts | 39° |
| 2026-05-07 13:43 | -28.72814 | -49.41339 | 22107 ft | 376 kts | 39° |
| 2026-05-07 13:43 | -28.70981 | -49.39261 | 21734 ft | 369 kts | 39° |
| 2026-05-07 13:43 | -28.69175 | -49.37214 | 21372 ft | 362 kts | 39° |
| 2026-05-07 13:44 | -28.67400 | -49.35206 | 21012 ft | 357 kts | 39° |
| 2026-05-07 13:44 | -28.65653 | -49.33230 | 20643 ft | 351 kts | 39° |
| 2026-05-07 13:44 | -28.63930 | -49.31283 | 20304 ft | 346 kts | 39° |
| 2026-05-07 13:44 | -28.62231 | -49.29364 | 19944 ft | 341 kts | 39° |
| 2026-05-07 13:45 | -28.60557 | -49.27474 | 19611 ft | 338 kts | 39° |
| 2026-05-07 13:45 | -28.58888 | -49.25592 | 19279 ft | 336 kts | 39° |
| 2026-05-07 13:45 | -28.57247 | -49.23743 | 18958 ft | 339 kts | 39° |
| 2026-05-07 13:45 | -28.55546 | -49.21831 | 18590 ft | 349 kts | 40° |
| 2026-05-07 13:46 | -28.53811 | -49.19882 | 18241 ft | 350 kts | 40° |
| 2026-05-07 13:46 | -28.52085 | -49.17937 | 17806 ft | 347 kts | 40° |
| 2026-05-07 13:46 | -28.50384 | -49.16016 | 17443 ft | 342 kts | 40° |
| 2026-05-07 13:46 | -28.48700 | -49.14118 | 17088 ft | 340 kts | 40° |
| 2026-05-07 13:47 | -28.47026 | -49.12233 | 16743 ft | 338 kts | 40° |
| 2026-05-07 13:47 | -28.45360 | -49.10358 | 16392 ft | 337 kts | 40° |
| 2026-05-07 13:47 | -28.43698 | -49.08489 | 16044 ft | 335 kts | 40° |
| 2026-05-07 13:47 | -28.42038 | -49.06624 | 15690 ft | 334 kts | 41° |
| 2026-05-07 13:48 | -28.40389 | -49.04771 | 15356 ft | 333 kts | 41° |
| 2026-05-07 13:48 | -28.38743 | -49.02923 | 15012 ft | 333 kts | 41° |
| 2026-05-07 13:48 | -28.37097 | -49.01077 | 14655 ft | 332 kts | 41° |
| 2026-05-07 13:48 | -28.35453 | -48.99232 | 14303 ft | 331 kts | 41° |
| 2026-05-07 13:49 | -28.33814 | -48.97394 | 13937 ft | 331 kts | 41° |
| 2026-05-07 13:49 | -28.32200 | -48.95586 | 13593 ft | 329 kts | 41° |
| 2026-05-07 13:49 | -28.30576 | -48.93767 | 13228 ft | 327 kts | 41° |
| 2026-05-07 13:49 | -28.28955 | -48.91955 | 12868 ft | 326 kts | 41° |
| 2026-05-07 13:50 | -28.27346 | -48.90154 | 12516 ft | 324 kts | 41° |
| 2026-05-07 13:50 | -28.25739 | -48.88354 | 12171 ft | 323 kts | 41° |
| 2026-05-07 13:50 | -28.24141 | -48.86565 | 11816 ft | 322 kts | 41° |
| 2026-05-07 13:50 | -28.22547 | -48.84783 | 11469 ft | 321 kts | 41° |
| 2026-05-07 13:51 | -28.20958 | -48.83009 | 11135 ft | 321 kts | 41° |
| 2026-05-07 13:51 | -28.19364 | -48.81230 | 10772 ft | 320 kts | 40° |
| 2026-05-07 13:51 | -28.17776 | -48.79462 | 10426 ft | 320 kts | 40° |
| 2026-05-07 13:51 | -28.16206 | -48.77707 | 10281 ft | 312 kts | 40° |
| 2026-05-07 13:52 | -28.14700 | -48.76021 | 10115 ft | 305 kts | 41° |
| 2026-05-07 13:52 | -28.13213 | -48.74310 | 9997 ft | 296 kts | 40° |
| 2026-05-07 13:52 | -28.11746 | -48.72680 | 9703 ft | 294 kts | 40° |
| 2026-05-07 13:52 | -28.10316 | -48.71074 | 9412 ft | 292 kts | 41° |
| 2026-05-07 13:53 | -28.08876 | -48.69463 | 9110 ft | 290 kts | 40° |
| 2026-05-07 13:53 | -28.07440 | -48.67873 | 8786 ft | 287 kts | 40° |
| 2026-05-07 13:53 | -28.06017 | -48.66308 | 8519 ft | 284 kts | 39° |
| 2026-05-07 13:53 | -28.04599 | -48.64750 | 8221 ft | 283 kts | 40° |
| 2026-05-07 13:54 | -28.03194 | -48.63200 | 7920 ft | 281 kts | 40° |
| 2026-05-07 13:54 | -28.01796 | -48.61652 | 7648 ft | 279 kts | 40° |
| 2026-05-07 13:54 | -28.00414 | -48.60121 | 7361 ft | 277 kts | 40° |
| 2026-05-07 13:54 | -27.99039 | -48.58595 | 7076 ft | 276 kts | 40° |
| 2026-05-07 13:55 | -27.97672 | -48.57079 | 6781 ft | 274 kts | 40° |
| 2026-05-07 13:55 | -27.96318 | -48.55577 | 6512 ft | 272 kts | 40° |
| 2026-05-07 13:55 | -27.94965 | -48.54077 | 6222 ft | 271 kts | 40° |
| 2026-05-07 13:55 | -27.93625 | -48.52591 | 5912 ft | 269 kts | 40° |
| 2026-05-07 13:56 | -27.92295 | -48.51116 | 5623 ft | 267 kts | 39° |
| 2026-05-07 13:56 | -27.90976 | -48.49654 | 5340 ft | 262 kts | 39° |
| 2026-05-07 13:56 | -27.89693 | -48.48231 | 5048 ft | 254 kts | 39° |
| 2026-05-07 13:56 | -27.88459 | -48.46863 | 4772 ft | 247 kts | 39° |
| 2026-05-07 13:57 | -27.87249 | -48.45523 | 4494 ft | 241 kts | 39° |
| 2026-05-07 13:57 | -27.86068 | -48.44215 | 4230 ft | 234 kts | 38° |
| 2026-05-07 13:57 | -27.84916 | -48.42957 | 3983 ft | 226 kts | 36° |
| 2026-05-07 13:57 | -27.83638 | -48.41984 | 3777 ft | 219 kts | 25° |
| 2026-05-07 13:58 | -27.82346 | -48.41140 | 3560 ft | 209 kts | 26° |
| 2026-05-07 13:58 | -27.81116 | -48.40318 | 3367 ft | 204 kts | 26° |
| 2026-05-07 13:58 | -27.79914 | -48.39508 | 3209 ft | 197 kts | 26° |
| 2026-05-07 13:58 | -27.78785 | -48.38742 | 3027 ft | 183 kts | 25° |
| 2026-05-07 13:59 | -27.77701 | -48.38110 | 2843 ft | 170 kts | 9° |
| 2026-05-07 13:59 | -27.76547 | -48.38150 | 2708 ft | 167 kts | 345° |
| 2026-05-07 13:59 | -27.75512 | -48.38786 | 2554 ft | 175 kts | 321° |
| 2026-05-07 13:59 | -27.74824 | -48.39886 | 2406 ft | 170 kts | 308° |
| 2026-05-07 14:00 | -27.74204 | -48.40986 | 2229 ft | 164 kts | 309° |
| 2026-05-07 14:00 | -27.73611 | -48.42064 | 2085 ft | 157 kts | 308° |
| 2026-05-07 14:00 | -27.73063 | -48.43082 | 1947 ft | 148 kts | 308° |
| 2026-05-07 14:00 | -27.72531 | -48.44066 | 1796 ft | 146 kts | 307° |
| 2026-05-07 14:01 | -27.72002 | -48.45046 | 1681 ft | 147 kts | 308° |
| 2026-05-07 14:01 | -27.71472 | -48.46025 | 1480 ft | 147 kts | 304° |
| 2026-05-07 14:01 | -27.70936 | -48.47021 | 1304 ft | 150 kts | 304° |
| 2026-05-07 14:01 | -27.70394 | -48.48028 | 1093 ft | 150 kts | 304° |
| 2026-05-07 14:02 | -27.69855 | -48.49031 | 870 ft | 147 kts | 305° |
| 2026-05-07 14:02 | -27.69342 | -48.49980 | 690 ft | 138 kts | 303° |
| 2026-05-07 14:02 | -27.68847 | -48.50868 | 503 ft | 132 kts | 298° |
| 2026-05-07 14:02 | -27.68328 | -48.51866 | 364 ft | 155 kts | 297° |
| 2026-05-07 14:03 | -27.67793 | -48.52863 | 120 ft | 140 kts | 297° |
| 2026-05-07 14:03 | -27.67312 | -48.53735 | 26 ft | 117 kts | 294° |
| 2026-05-07 14:03 | -27.66976 | -48.54367 | 27 ft | 81 kts | 300° |
| 2026-05-07 14:03 | -27.66779 | -48.54741 | 28 ft | 43 kts | 301° |
| 2026-05-07 14:04 | -27.66645 | -48.54984 | 26 ft | 28 kts | 304° |
| 2026-05-07 14:04 | -27.66610 | -48.55110 | 25 ft | 12 kts | 243° |
| 2026-05-07 14:04 | -27.66674 | -48.55141 | 29 ft | 9 kts | 173° |
| 2026-05-07 14:04 | -27.66731 | -48.55122 | 29 ft | 8 kts | 158° |
| 2026-05-07 14:05 | -27.66759 | -48.55105 | 28 ft | 7 kts | 147° |
| 2026-05-07 14:05 | -27.66792 | -48.55065 | 26 ft | 6 kts | 125° |
| 2026-05-07 14:05 | -27.66818 | -48.55021 | 28 ft | 7 kts | 121° |
| 2026-05-07 14:05 | -27.66842 | -48.54974 | 26 ft | 7 kts | 121° |
| 2026-05-07 14:06 | -27.66875 | -48.54915 | 26 ft | 12 kts | 121° |
| 2026-05-07 14:06 | -27.66928 | -48.54812 | 27 ft | 18 kts | 120° |
| 2026-05-07 14:06 | -27.66997 | -48.54682 | 27 ft | 19 kts | 122° |
| 2026-05-07 14:06 | -27.67067 | -48.54601 | 28 ft | 11 kts | 173° |
| 2026-05-07 14:07 | -27.67137 | -48.54619 | 26 ft | 10 kts | 186° |
| 2026-05-07 14:07 | -27.67200 | -48.54590 | 26 ft | 10 kts | 135° |
| 2026-05-07 14:07 | -27.67238 | -48.54527 | 29 ft | 10 kts | 122° |
| 2026-05-07 14:07 | -27.67273 | -48.54463 | 26 ft | 9 kts | 121° |
| 2026-05-07 14:08 | -27.67309 | -48.54416 | 26 ft | 6 kts | 160° |
| 2026-05-07 14:08 | -27.67333 | -48.54421 | 26 ft | 3 kts | 209° |
| 2026-05-07 14:08 | -27.67342 | -48.54430 | 26 ft | 1 kts | 220° |
| 2026-05-07 14:08 | -27.67345 | -48.54432 | 26 ft | 0 kts | 217° |
| 2026-05-07 14:09 | -27.67347 | -48.54434 | 26 ft | 0 kts | 217° |